Time;durP1;ratioP1;P1;durP2;ratioP2;P2;SDS_P1;SDS_P2;PMS_P1;PMS_P2;Temp;Humidity;BMP_temperature;BMP_pressure;BME280_temperature;BME280_humidity;BME280_pressure;Samples;Min_cycle;Max_cycle;Signal;HPM_P1;HPM_P2
2021/06/26 00:02:04;;;;;;;1.73;1.53;;;;;;;16.61;77.76;99198.84;5053984;28;41966;-79
2021/06/26 00:04:32;;;;;;;1.33;1.20;;;;;;;16.26;77.75;99141.09;5069802;28;42777;-82
2021/06/26 00:06:59;;;;;;;1.77;1.63;;;;;;;16.55;77.50;99189.50;5071252;28;38965;-80
2021/06/26 00:09:27;;;;;;;2.40;2.03;;;;;;;16.54;77.63;99198.50;5069915;28;42029;-83
2021/06/26 00:11:55;;;;;;;2.33;1.53;;;;;;;16.43;77.43;99187.84;5054033;28;42025;-82
2021/06/26 00:14:22;;;;;;;1.63;1.43;;;;;;;16.43;77.36;99195.84;5069639;28;41413;-79
2021/06/26 00:16:50;;;;;;;1.03;1.03;;;;;;;16.45;77.31;99193.88;5070678;28;39933;-81
2021/06/26 00:19:19;;;;;;;1.87;1.53;;;;;;;16.43;77.33;99194.03;5070111;28;40451;-80
2021/06/26 00:21:47;;;;;;;1.83;1.67;;;;;;;16.38;77.38;99192.69;5070667;28;43694;-82
2021/06/26 00:24:14;;;;;;;1.77;1.40;;;;;;;16.31;77.60;99186.16;5069522;28;42029;-84
2021/06/26 00:26:42;;;;;;;1.83;1.73;;;;;;;16.38;77.75;99204.22;5069270;28;39470;-80
2021/06/26 00:29:10;;;;;;;1.73;1.57;;;;;;;16.35;77.37;99199.13;5069775;28;42246;-82
2021/06/26 00:31:37;;;;;;;3.40;1.70;;;;;;;16.30;77.68;99193.31;5070739;28;42021;-79
2021/06/26 00:34:05;;;;;;;2.20;2.10;;;;;;;16.14;77.85;99164.31;5070627;28;42694;-83
2021/06/26 00:36:34;;;;;;;2.13;1.43;;;;;;;16.28;77.64;99191.75;5070339;28;40024;-81
2021/06/26 00:39:02;;;;;;;2.50;1.80;;;;;;;16.17;77.58;99179.25;5071004;28;41707;-85
2021/06/26 00:41:29;;;;;;;2.90;1.90;;;;;;;16.22;77.37;99193.06;5069685;28;43566;-81
2021/06/26 00:44:02;;;;;;;2.57;1.47;;;;;;;16.20;77.46;99186.13;5053847;28;42381;-80
2021/06/26 00:46:30;;;;;;;1.70;1.50;;;;;;;16.10;77.65;99178.88;5071884;28;40001;-80
2021/06/26 00:48:57;;;;;;;1.17;1.07;;;;;;;16.09;77.45;99190.53;5070252;28;41513;-77
2021/06/26 00:51:25;;;;;;;1.70;1.10;;;;;;;16.11;77.84;99196.59;5070939;28;43420;-77
2021/06/26 00:53:54;;;;;;;1.63;1.53;;;;;;;15.98;78.12;99174.50;5070155;28;41581;-84
2021/06/26 00:56:22;;;;;;;2.03;1.40;;;;;;;15.97;78.13;99161.25;5070687;28;40705;-83
2021/06/26 00:58:50;;;;;;;2.17;1.80;;;;;;;16.06;77.66;99198.81;5071162;28;41819;-83
2021/06/26 01:01:18;;;;;;;2.20;1.60;;;;;;;16.04;77.93;99192.72;5052248;28;41739;-84
2021/06/26 01:03:46;;;;;;;1.60;1.50;;;;;;;16.02;78.00;99180.47;5069456;28;42428;-78
2021/06/26 01:06:15;;;;;;;1.53;1.20;;;;;;;15.99;77.77;99181.56;5069877;28;39679;-83
2021/06/26 01:08:43;;;;;;;1.70;1.60;;;;;;;15.85;77.98;99160.44;5071239;28;41844;-83
2021/06/26 01:11:12;;;;;;;4.03;2.53;;;;;;;15.97;78.34;99185.31;5052777;28;42483;-84
2021/06/26 01:13:40;;;;;;;2.47;1.80;;;;;;;15.94;78.54;99182.91;5069363;28;42999;-85
2021/06/26 01:16:07;;;;;;;1.90;1.77;;;;;;;15.94;78.09;99189.09;5070153;28;40631;-84
2021/06/26 01:18:35;;;;;;;1.73;1.63;;;;;;;15.93;78.04;99186.53;5069426;28;41687;-80
2021/06/26 01:21:03;;;;;;;2.30;1.70;;;;;;;15.79;78.19;99180.47;5069881;28;43356;-83
2021/06/26 01:23:33;;;;;;;1.53;1.33;;;;;;;15.52;78.13;99133.69;5052164;28;41729;-79
2021/06/26 01:26:00;;;;;;;2.20;1.93;;;;;;;15.86;78.36;99186.16;5051706;28;40644;-83
2021/06/26 01:28:28;;;;;;;1.57;1.40;;;;;;;15.75;78.46;99167.47;5052218;28;41135;-81
2021/06/26 01:30:56;;;;;;;2.47;1.90;;;;;;;15.82;78.38;99184.72;5069291;28;42770;-84
2021/06/26 01:33:23;;;;;;;3.10;2.17;;;;;;;15.81;78.03;99180.34;5069045;28;41159;-82
2021/06/26 01:35:52;;;;;;;2.40;2.20;;;;;;;15.80;78.03;99192.00;5070090;28;39667;-82
2021/06/26 01:38:21;;;;;;;1.67;1.17;;;;;;;15.75;78.44;99188.84;5069251;28;41171;-83
2021/06/26 01:40:51;;;;;;;2.00;1.57;;;;;;;15.75;78.42;99194.16;5052941;28;42883;-80
2021/06/26 01:43:18;;;;;;;1.60;1.30;;;;;;;15.73;78.02;99191.63;5069480;28;42313;-81
2021/06/26 01:45:46;;;;;;;3.47;2.13;;;;;;;15.60;78.18;99174.84;5052997;28;38740;-82
2021/06/26 01:48:14;;;;;;;1.80;1.53;;;;;;;15.70;78.23;99196.38;5067893;28;41422;-82
2021/06/26 01:50:42;;;;;;;1.23;1.13;;;;;;;15.65;77.77;99188.72;5069605;28;41710;-82
2021/06/26 01:53:10;;;;;;;1.60;1.50;;;;;;;15.65;78.21;99188.72;5069878;28;42106;-80
2021/06/26 01:55:38;;;;;;;1.87;1.07;;;;;;;15.63;78.22;99187.13;5052669;28;39044;-82
2021/06/26 01:58:07;;;;;;;0.90;0.90;;;;;;;15.58;77.98;99181.31;5068558;28;41521;-81
2021/06/26 02:00:35;;;;;;;1.67;1.27;;;;;;;15.57;78.35;99184.94;5069104;28;43398;-84
2021/06/26 02:03:03;;;;;;;1.43;1.30;;;;;;;15.55;78.14;99184.22;5069697;28;43034;-80
2021/06/26 02:05:31;;;;;;;1.93;1.50;;;;;;;15.44;78.07;99169.84;5051961;28;38994;-79
2021/06/26 02:08:01;;;;;;;1.37;1.27;;;;;;;15.51;78.43;99180.03;5070800;28;41716;-83
2021/06/26 02:10:29;;;;;;;1.33;1.23;;;;;;;15.48;78.46;99185.59;5068862;28;42763;-81
2021/06/26 02:12:57;;;;;;;2.00;1.60;;;;;;;15.38;78.02;99170.31;5069937;28;42265;-80
2021/06/26 02:15:26;;;;;;;1.33;1.23;;;;;;;15.45;78.05;99187.53;5085843;28;39658;-82
2021/06/26 02:17:54;;;;;;;1.60;1.50;;;;;;;15.42;78.36;99182.44;5070545;28;40988;-83
2021/06/26 02:20:22;;;;;;;1.60;1.50;;;;;;;15.39;78.11;99185.34;5051504;28;42692;-83
2021/06/26 02:22:50;;;;;;;1.47;1.37;;;;;;;15.37;78.26;99187.28;5067947;28;42081;-83
2021/06/26 02:25:19;;;;;;;2.60;1.30;;;;;;;15.29;77.91;99173.69;5068101;28;40625;-83
2021/06/26 02:27:46;;;;;;;1.13;1.10;;;;;;;15.32;77.87;99178.81;5067238;28;42016;-84
2021/06/26 02:30:16;;;;;;;1.40;1.30;;;;;;;15.19;78.27;99164.69;5051769;28;42631;-78
2021/06/26 02:32:45;;;;;;;1.23;1.07;;;;;;;15.26;77.88;99176.59;5068515;28;42922;-81
2021/06/26 02:35:13;;;;;;;1.60;1.43;;;;;;;15.16;77.72;99164.91;5068293;28;38985;-79
2021/06/26 02:37:42;;;;;;;1.53;1.30;;;;;;;15.20;78.08;99182.41;5053781;28;40353;-81
2021/06/26 02:40:11;;;;;;;1.70;1.23;;;;;;;15.06;77.95;99163.94;5063061;28;41874;-77
2021/06/26 02:42:39;;;;;;;1.63;1.50;;;;;;;15.05;77.91;99173.75;5052064;28;41170;-77
2021/06/26 02:45:08;;;;;;;1.17;0.97;;;;;;;15.11;77.80;99183.09;5051407;28;39676;-79
2021/06/26 02:47:37;;;;;;;1.60;1.27;;;;;;;15.10;77.90;99192.03;5051778;28;40697;-83
2021/06/26 02:50:08;;;;;;;1.00;0.77;;;;;;;15.04;77.95;99190.72;5069020;28;41717;-81
2021/06/26 02:52:37;;;;;;;1.63;1.03;;;;;;;15.06;77.73;99201.28;5069152;28;42772;-80
2021/06/26 02:55:06;;;;;;;1.47;0.93;;;;;;;15.04;77.92;99193.38;5068647;28;39977;-79
2021/06/26 02:57:34;;;;;;;2.03;1.93;;;;;;;15.02;78.13;99191.78;5051577;28;40939;-80
2021/06/26 03:00:02;;;;;;;1.60;1.40;;;;;;;15.01;77.88;99190.94;5051271;28;42175;-80
2021/06/26 03:02:31;;;;;;;1.30;0.97;;;;;;;14.99;77.89;99195.53;5050845;28;41258;-79
2021/06/26 03:04:59;;;;;;;1.73;1.40;;;;;;;14.99;78.22;99194.69;5052272;28;40241;-84
2021/06/26 03:07:28;;;;;;;2.07;1.23;;;;;;;14.89;77.92;99177.66;5050477;28;41031;-80
2021/06/26 03:09:56;;;;;;;1.17;0.97;;;;;;;14.98;78.26;99195.63;5069664;28;42448;-79
2021/06/26 03:12:23;;;;;;;1.57;0.90;;;;;;;15.00;78.14;99191.03;5050686;28;41292;-81
2021/06/26 03:14:51;;;;;;;3.10;1.10;;;;;;;14.92;77.67;99172.97;5067742;28;39945;-82
2021/06/26 03:17:19;;;;;;;1.03;0.93;;;;;;;15.10;78.06;99192.91;5067691;28;42356;-83
2021/06/26 03:19:47;;;;;;;1.47;1.37;;;;;;;15.15;77.71;99187.22;5067678;28;41844;-81
2021/06/26 03:22:14;;;;;;;1.60;1.37;;;;;;;15.19;77.83;99191.38;5067241;28;42181;-80
2021/06/26 03:24:44;;;;;;;1.10;1.00;;;;;;;15.22;77.83;99185.78;5068282;28;40627;-83
2021/06/26 03:27:14;;;;;;;2.33;1.17;;;;;;;15.31;77.62;99193.09;5066829;28;41414;-81
2021/06/26 03:29:42;;;;;;;1.20;1.10;;;;;;;15.33;77.47;99188.47;5067531;28;41462;-81
2021/06/26 03:32:11;;;;;;;1.93;1.30;;;;;;;15.38;77.79;99180.97;5069237;28;43894;-83
2021/06/26 03:34:39;;;;;;;2.00;1.80;;;;;;;15.35;77.53;99175.88;5069295;28;39754;-78
2021/06/26 03:37:06;;;;;;;1.83;1.40;;;;;;;15.48;77.97;99185.59;5066882;28;40870;-77
2021/06/26 03:39:34;;;;;;;2.20;1.93;;;;;;;15.45;78.14;99171.50;5051237;28;41801;-79
2021/06/26 03:42:04;;;;;;;1.70;1.40;;;;;;;15.58;78.45;99176.78;5066968;28;41279;-83
2021/06/26 03:44:32;;;;;;;2.77;2.50;;;;;;;15.60;78.01;99177.53;5067635;28;39831;-83
2021/06/26 03:47:00;;;;;;;1.73;1.60;;;;;;;15.54;78.42;99166.47;5051716;28;41138;-84
2021/06/26 03:49:31;;;;;;;1.73;1.50;;;;;;;15.67;78.51;99185.91;5070008;28;43036;-82
2021/06/26 03:52:00;;;;;;;2.50;2.23;;;;;;;15.72;78.35;99189.06;5071142;28;43116;-83
2021/06/26 03:54:28;;;;;;;1.90;1.67;;;;;;;15.76;78.14;99188.72;5070696;28;41002;-82
2021/06/26 03:56:56;;;;;;;2.30;1.77;;;;;;;15.78;78.72;99189.44;5070600;28;41226;-81
2021/06/26 03:59:25;;;;;;;3.47;3.00;;;;;;;15.85;78.31;99192.47;5069830;28;42659;-77
2021/06/26 04:01:53;;;;;;;2.43;1.97;;;;;;;15.89;78.15;99196.59;5053742;28;41343;-85
2021/06/26 04:04:21;;;;;;;2.47;1.80;;;;;;;15.85;78.31;99183.59;5053983;28;39877;-82
2021/06/26 04:06:48;;;;;;;3.23;1.73;;;;;;;15.93;78.42;99197.22;5070072;28;41354;-80
2021/06/26 04:09:16;;;;;;;1.97;1.83;;;;;;;15.89;78.48;99185.94;5070235;28;41930;-79
2021/06/26 04:11:44;;;;;;;1.40;1.30;;;;;;;15.94;78.52;99193.59;5053627;28;41219;-78
2021/06/26 04:14:12;;;;;;;2.00;1.47;;;;;;;16.02;78.39;99201.84;5069987;28;39000;-82
2021/06/26 04:16:41;;;;;;;2.13;1.93;;;;;;;15.98;78.75;99195.03;5092050;28;42154;-80
2021/06/26 04:19:09;;;;;;;2.13;1.60;;;;;;;16.08;78.44;99202.19;5090898;28;43451;-79
2021/06/26 04:21:36;;;;;;;1.97;1.77;;;;;;;16.11;78.94;99212.63;5092011;28;42925;-81
2021/06/26 04:24:05;;;;;;;2.90;2.60;;;;;;;16.13;78.79;99216.03;5073888;28;40307;-82
2021/06/26 04:26:32;;;;;;;1.50;1.40;;;;;;;16.16;78.46;99217.63;5090675;28;41653;-86
2021/06/26 04:29:00;;;;;;;2.37;2.10;;;;;;;16.19;78.64;99219.22;5090017;28;42849;-79
2021/06/26 04:31:28;;;;;;;2.90;2.60;;;;;;;16.24;78.41;99206.31;5091225;28;42172;-79
2021/06/26 04:33:57;;;;;;;2.50;1.83;;;;;;;16.26;78.17;99207.91;5089410;28;40597;-80
2021/06/26 04:36:25;;;;;;;2.57;2.23;;;;;;;16.29;78.61;99201.47;5073635;28;41599;-80
2021/06/26 04:38:53;;;;;;;1.73;1.63;;;;;;;16.22;78.19;99186.88;5071098;28;42431;-81
2021/06/26 04:41:21;;;;;;;2.53;2.33;;;;;;;16.53;78.20;99218.19;5089179;28;42170;-83
2021/06/26 04:43:48;;;;;;;2.37;1.80;;;;;;;16.67;78.04;99219.78;5091254;28;40827;-80
2021/06/26 04:46:16;;;;;;;3.03;2.60;;;;;;;16.77;78.29;99216.22;5073317;28;42005;-82
2021/06/26 04:48:44;;;;;;;2.70;2.03;;;;;;;16.85;77.78;99211.06;5092336;28;44199;-78
2021/06/26 04:51:14;;;;;;;2.53;2.17;;;;;;;16.93;77.78;99212.28;5091062;28;42308;-81
2021/06/26 04:53:41;;;;;;;2.57;2.07;;;;;;;17.06;77.60;99221.00;5091173;28;39659;-78
2021/06/26 04:56:09;;;;;;;2.77;1.90;;;;;;;16.97;77.49;99194.97;5092082;28;41569;-83
2021/06/26 04:58:36;;;;;;;2.90;2.70;;;;;;;17.16;76.89;99212.06;5089563;28;41986;-80
2021/06/26 05:01:04;;;;;;;2.40;2.10;;;;;;;17.23;76.86;99207.03;5073717;28;41143;-77
2021/06/26 05:03:32;;;;;;;2.90;2.50;;;;;;;17.36;76.84;99221.06;5062605;28;39062;-83
2021/06/26 05:06:00;;;;;;;3.47;3.13;;;;;;;17.41;76.43;99216.19;5053162;28;41863;-83
2021/06/26 05:08:29;;;;;;;2.47;2.20;;;;;;;17.51;76.51;99222.47;5069630;28;43038;-80
2021/06/26 05:10:57;;;;;;;3.37;2.33;;;;;;;17.60;76.48;99220.81;5070832;28;42191;-81
2021/06/26 05:13:25;;;;;;;3.83;3.30;;;;;;;17.65;76.48;99224.00;5049246;28;38961;-83
2021/06/26 05:15:53;;;;;;;3.10;2.80;;;;;;;17.76;76.32;99220.41;5051328;28;40920;-82
2021/06/26 05:18:21;;;;;;;3.07;2.77;;;;;;;17.90;75.72;99228.09;5069418;28;43642;-80
2021/06/26 05:20:49;;;;;;;4.63;2.70;;;;;;;18.05;76.14;99231.28;5069770;28;42343;-79
2021/06/26 05:23:19;;;;;;;3.00;2.77;;;;;;;18.16;75.77;99237.41;5049534;28;38647;-79
2021/06/26 05:25:49;;;;;;;3.00;2.23;;;;;;;18.29;75.71;99239.84;5069185;28;41108;-82
2021/06/26 05:28:17;;;;;;;3.03;2.57;;;;;;;18.40;75.09;99236.22;5052396;28;41727;-78
2021/06/26 05:30:45;;;;;;;3.87;2.67;;;;;;;18.57;74.88;99235.53;5069507;28;42122;-80
2021/06/26 05:33:13;;;;;;;2.53;2.33;;;;;;;18.68;74.82;99230.09;5065206;28;41495;-82
2021/06/26 05:35:41;;;;;;;3.13;2.07;;;;;;;18.75;74.35;99217.84;5068017;28;41847;-79
2021/06/26 05:38:09;;;;;;;2.47;2.13;;;;;;;18.87;73.91;99224.78;5074592;28;43453;-79
2021/06/26 05:40:36;;;;;;;4.27;3.03;;;;;;;18.96;73.92;99231.13;5074686;28;42776;-82
2021/06/26 05:43:06;;;;;;;3.33;2.73;;;;;;;18.90;74.00;99240.59;5074732;28;39783;-82
2021/06/26 05:45:34;;;;;;;2.50;2.30;;;;;;;18.85;73.88;99231.25;5076178;28;41560;-80
2021/06/26 05:48:02;;;;;;;3.13;2.50;;;;;;;18.86;73.94;99222.22;5059599;28;41701;-81
2021/06/26 05:50:30;;;;;;;2.10;1.90;;;;;;;18.98;73.63;99240.75;5073906;28;42276;-84
2021/06/26 05:52:58;;;;;;;3.33;2.50;;;;;;;19.06;73.67;99236.50;5072684;28;38616;-82
2021/06/26 05:55:27;;;;;;;3.10;2.50;;;;;;;19.09;73.35;99225.50;5056483;28;41695;-83
2021/06/26 05:57:55;;;;;;;1.57;1.47;;;;;;;19.28;73.31;99221.00;5072982;28;42739;-88
2021/06/26 06:00:24;;;;;;;2.40;2.20;;;;;;;19.38;72.78;99229.88;5064448;28;42075;-84
2021/06/26 06:02:52;;;;;;;4.03;3.00;;;;;;;19.46;72.72;99231.00;5065425;28;40461;-82
2021/06/26 06:05:20;;;;;;;2.70;2.47;;;;;;;19.50;72.78;99225.25;5069715;28;42002;-84
2021/06/26 06:07:48;;;;;;;2.70;1.73;;;;;;;19.67;71.89;99232.53;5064885;28;42631;-80
2021/06/26 06:10:17;;;;;;;2.47;1.80;;;;;;;19.83;71.93;99240.03;5064263;28;42243;-82
2021/06/26 06:12:45;;;;;;;3.63;2.50;;;;;;;19.91;71.40;99236.59;5068646;28;40052;-83
2021/06/26 06:15:14;;;;;;;2.47;2.23;;;;;;;19.93;71.35;99234.63;5073194;28;41562;-85
2021/06/26 06:17:43;;;;;;;2.40;2.20;;;;;;;19.92;70.83;99230.22;5052014;28;41834;-84
2021/06/26 06:20:12;;;;;;;3.07;2.70;;;;;;;19.99;71.04;99239.41;5073084;28;42815;-79
2021/06/26 06:22:40;;;;;;;2.67;2.13;;;;;;;20.10;70.57;99244.63;5072120;28;40452;-82
2021/06/26 06:25:12;;;;;;;3.67;3.07;;;;;;;20.18;70.62;99244.72;5067269;28;42291;-79
2021/06/26 06:27:42;;;;;;;2.60;2.00;;;;;;;20.21;70.03;99239.06;5065949;28;42655;-81
2021/06/26 06:30:11;;;;;;;2.60;2.27;;;;;;;20.30;70.40;99238.16;5063964;28;43340;-83
2021/06/26 06:32:39;;;;;;;2.30;2.07;;;;;;;20.34;70.20;99231.50;5054810;28;38962;-87
2021/06/26 06:35:10;;;;;;;3.30;3.00;;;;;;;20.67;69.66;99240.84;5075702;28;41438;-81
2021/06/26 06:37:38;;;;;;;2.83;1.93;;;;;;;20.85;69.23;99237.34;5071503;28;43413;-78
2021/06/26 06:40:07;;;;;;;4.07;2.50;;;;;;;21.09;68.88;99230.38;5069259;28;42069;-82
2021/06/26 06:42:37;;;;;;;2.20;2.00;;;;;;;21.40;68.38;99238.06;5067801;28;40007;-84
2021/06/26 06:45:06;;;;;;;2.67;2.23;;;;;;;21.75;67.44;99248.84;5065564;28;40533;-86
2021/06/26 06:47:35;;;;;;;2.20;2.00;;;;;;;22.18;66.04;99244.41;5050100;28;43502;-81
2021/06/26 06:50:03;;;;;;;2.30;2.10;;;;;;;22.67;64.76;99250.88;5048241;28;42301;-80
2021/06/26 06:52:33;;;;;;;2.40;1.53;;;;;;;23.04;63.92;99250.50;5031590;28;39953;-77
2021/06/26 06:55:01;;;;;;;2.77;2.47;;;;;;;23.38;62.66;99254.94;5059057;28;42321;-82
2021/06/26 06:57:29;;;;;;;3.03;2.73;;;;;;;23.54;61.71;99253.16;5047045;28;41612;-81
2021/06/26 06:59:56;;;;;;;2.83;2.60;;;;;;;23.65;61.99;99230.31;5048864;28;42723;-81
2021/06/26 07:02:24;;;;;;;2.90;2.60;;;;;;;23.92;61.78;99243.50;5041351;28;39693;-78
2021/06/26 07:04:52;;;;;;;2.73;2.53;;;;;;;24.14;60.18;99258.16;5069841;28;41934;-80
2021/06/26 07:07:20;;;;;;;2.97;2.67;;;;;;;24.42;60.22;99261.34;5051019;28;42584;-83
2021/06/26 07:09:50;;;;;;;2.27;2.03;;;;;;;24.84;59.05;99260.16;5066940;28;42333;-84
2021/06/26 07:12:18;;;;;;;2.73;2.53;;;;;;;25.05;58.40;99254.97;5051233;28;39806;-84
2021/06/26 07:14:46;;;;;;;2.20;2.00;;;;;;;25.03;58.14;99246.19;5067576;28;41724;-81
2021/06/26 07:17:14;;;;;;;2.83;2.53;;;;;;;25.04;58.74;99246.00;5068802;28;43425;-80
2021/06/26 07:19:42;;;;;;;3.13;2.03;;;;;;;24.93;57.88;99249.13;5066737;28;42169;-82
2021/06/26 07:22:09;;;;;;;2.30;1.80;;;;;;;24.89;58.52;99246.91;5050896;28;39175;-77
2021/06/26 07:24:37;;;;;;;2.43;2.07;;;;;;;24.95;57.91;99251.66;5059905;28;42287;-84
2021/06/26 07:27:07;;;;;;;2.90;2.50;;;;;;;25.00;58.88;99246.53;5070638;28;43397;-82
2021/06/26 07:29:35;;;;;;;2.00;1.80;;;;;;;25.41;58.47;99253.38;5071603;28;41994;-85
2021/06/26 07:32:04;;;;;;;2.27;2.07;;;;;;;26.59;55.71;99264.50;5072017;28;39980;-86
2021/06/26 07:34:32;;;;;;;2.17;1.90;;;;;;;28.21;52.26;99278.41;5065473;28;41751;-77
2021/06/26 07:36:59;;;;;;;2.60;2.20;;;;;;;29.39;47.79;99277.38;5068862;28;43321;-81
2021/06/26 07:39:27;;;;;;;2.30;2.10;;;;;;;30.42;44.99;99300.53;5069384;28;41600;-83
2021/06/26 07:41:55;;;;;;;2.30;2.13;;;;;;;31.30;43.18;99309.13;5068458;28;40014;-84
2021/06/26 07:44:25;;;;;;;2.27;2.07;;;;;;;32.27;42.18;99295.00;5053183;28;41058;-81
2021/06/26 07:46:53;;;;;;;2.37;2.17;;;;;;;33.10;40.72;99273.44;5069020;28;42344;-83
2021/06/26 07:49:21;;;;;;;2.83;2.63;;;;;;;34.01;38.63;99304.47;5034210;28;42196;-83
2021/06/26 07:51:49;;;;;;;2.47;2.27;;;;;;;34.77;36.78;99317.34;5051314;28;40789;-85
2021/06/26 07:54:17;;;;;;;2.20;2.00;;;;;;;35.61;36.06;99313.88;5050087;28;41608;-85
2021/06/26 07:56:46;;;;;;;2.63;2.43;;;;;;;36.44;35.07;99312.31;5060052;28;42828;-86
2021/06/26 07:59:14;;;;;;;2.90;2.70;;;;;;;36.83;33.95;99291.09;5071763;28;40973;-86
2021/06/26 08:01:44;;;;;;;3.53;2.90;;;;;;;36.93;32.47;99327.13;5072226;28;40969;-89
2021/06/26 08:04:12;;;;;;;2.93;2.73;;;;;;;35.99;32.57;99323.41;5052957;28;41877;-89
2021/06/26 08:06:40;;;;;;;2.97;2.77;;;;;;;34.57;33.36;99318.53;5052408;28;42839;-92
2021/06/26 08:09:07;;;;;;;2.40;2.30;;;;;;;33.52;36.34;99281.72;5067455;28;42193;-84
2021/06/26 08:11:35;;;;;;;2.80;2.60;;;;;;;33.38;36.11;99291.25;5057488;28;40644;-92
2021/06/26 08:14:04;;;;;;;1.90;1.80;;;;;;;33.98;36.38;99280.22;5054161;28;40785;-87
2021/06/26 08:16:31;;;;;;;3.13;2.87;;;;;;;35.06;34.68;99291.56;5087806;28;42378;-87
2021/06/26 08:19:01;;;;;;;2.50;2.30;;;;;;;36.00;33.31;99294.75;5056997;28;41935;-86
2021/06/26 08:21:30;;;;;;;2.17;2.07;;;;;;;36.90;32.82;99279.84;5052254;28;39529;-84
2021/06/26 08:23:58;;;;;;;2.50;2.30;;;;;;;37.57;30.75;99287.84;5033277;28;40781;-85
2021/06/26 08:26:25;;;;;;;2.60;2.40;;;;;;;37.61;29.99;99308.34;5034759;28;42704;-88
2021/06/26 08:28:53;;;;;;;2.67;2.47;;;;;;;37.02;30.45;99291.59;5069577;28;42768;-87
2021/06/26 08:31:21;;;;;;;2.63;2.43;;;;;;;36.19;31.65;99274.09;5054107;28;38866;-87
2021/06/26 08:33:48;;;;;;;2.30;2.10;;;;;;;35.98;33.71;99275.69;5078736;28;41504;-82
2021/06/26 08:36:17;;;;;;;2.63;2.43;;;;;;;36.09;32.91;99273.13;5050117;28;42636;-80
2021/06/26 08:38:45;;;;;;;3.13;2.90;;;;;;;36.43;32.31;99277.53;5050749;28;41554;-82
2021/06/26 08:41:15;;;;;;;4.30;2.50;;;;;;;36.98;31.62;99265.59;5049356;28;39900;-86
2021/06/26 08:43:44;;;;;;;2.47;2.27;;;;;;;37.94;30.43;99282.44;5051637;28;42493;-82
2021/06/26 08:46:13;;;;;;;2.60;2.40;;;;;;;38.93;27.99;99307.50;5034477;28;42639;-84
2021/06/26 08:48:41;;;;;;;2.10;2.00;;;;;;;39.84;26.81;99312.53;5049919;28;41145;-83
2021/06/26 08:51:09;;;;;;;3.42;2.38;;;;;;;40.69;26.61;99296.97;5050334;28;39617;-79
2021/06/26 08:53:38;;;;;;;2.10;1.90;;;;;;;41.58;25.58;99301.66;5065165;28;41857;-92
2021/06/26 08:56:06;;;;;;;2.05;1.95;;;;;;;42.36;24.38;99308.31;5050259;28;42749;-83
2021/06/26 08:58:34;;;;;;;2.60;2.40;;;;;;;42.92;23.56;99303.00;5049383;28;41722;-82
2021/06/26 09:01:02;;;;;;;1.95;1.77;;;;;;;43.24;23.22;99299.56;5065618;28;39824;-88
2021/06/26 09:03:30;;;;;;;2.47;2.28;;;;;;;43.35;21.92;99306.66;5049535;28;42204;-83
2021/06/26 09:06:03;;;;;;;2.15;2.05;;;;;;;41.47;23.40;99285.28;5062112;28;43274;-77
2021/06/26 09:08:31;;;;;;;3.33;3.03;;;;;;;39.16;26.18;99284.06;5059779;28;41369;-78
2021/06/26 09:11:00;;;;;;;2.80;2.60;;;;;;;37.81;29.09;99255.22;5062158;28;40074;-80
2021/06/26 09:13:33;;;;;;;3.00;2.80;;;;;;;36.58;30.77;99235.53;5062176;28;41654;-79
2021/06/26 09:16:07;;;;;;;2.97;2.67;;;;;;;35.89;31.56;99232.25;5061881;28;43044;-78
2021/06/26 09:18:42;;;;;;;1.97;1.87;;;;;;;35.70;32.38;99239.06;5046016;28;40464;-78
2021/06/26 09:21:26;;;;;;;2.60;2.40;;;;;;;35.43;32.26;99228.69;5061388;28;40929;-77
2021/06/26 09:24:00;;;;;;;2.87;2.47;;;;;;;34.58;32.66;99223.91;5068813;28;42783;-82
2021/06/26 09:26:29;;;;;;;3.30;3.07;;;;;;;33.71;35.19;99208.34;5042647;28;41566;-82
2021/06/26 09:29:09;;;;;;;3.47;3.17;;;;;;;33.15;36.37;99204.09;5078185;28;43507;-83
2021/06/26 09:31:37;;;;;;;2.70;2.50;;;;;;;32.52;38.00;99187.22;5077515;28;39898;-85
2021/06/26 09:34:05;;;;;;;2.57;2.37;;;;;;;31.93;37.92;99192.22;5056128;28;41923;-78
2021/06/26 09:36:33;;;;;;;2.83;2.50;;;;;;;31.34;37.90;99200.88;5057280;28;41901;-80
2021/06/26 09:39:06;;;;;;;4.03;3.10;;;;;;;30.93;39.24;99183.00;5044102;28;42125;-82
2021/06/26 09:41:37;;;;;;;3.13;2.17;;;;;;;30.63;40.72;99160.03;5068976;28;40932;-81
2021/06/26 09:44:09;;;;;;;2.70;2.37;;;;;;;30.41;40.55;99175.03;5069802;28;42371;-86
2021/06/26 09:46:50;;;;;;;2.83;2.60;;;;;;;32.82;37.62;99175.22;5047188;28;42726;-84
2021/06/26 09:49:27;;;;;;;2.90;2.70;;;;;;;35.34;34.05;99212.81;5048586;28;40893;-85
2021/06/26 09:52:00;;;;;;;2.83;2.40;;;;;;;35.45;33.12;99209.16;5030747;28;38987;-87
2021/06/26 09:54:28;;;;;;;2.20;2.10;;;;;;;35.08;32.66;99212.31;5046626;28;43215;-91
2021/06/26 09:56:58;;;;;;;3.20;2.33;;;;;;;34.17;33.23;99204.81;5046860;28;42758;-80
2021/06/26 09:59:34;;;;;;;2.73;2.53;;;;;;;33.17;36.25;99191.81;5045627;28;41284;-87
2021/06/26 10:02:02;;;;;;;2.90;2.70;;;;;;;32.62;36.16;99201.22;5062656;28;39651;-86
2021/06/26 10:04:30;;;;;;;3.40;2.97;;;;;;;32.76;34.09;99211.78;5031170;28;40784;-82
2021/06/26 10:06:59;;;;;;;2.77;2.57;;;;;;;32.28;35.50;99192.50;5054089;28;41182;-82
2021/06/26 10:09:27;;;;;;;3.93;2.47;;;;;;;33.25;36.69;99176.97;5059632;28;41715;-80
2021/06/26 10:11:57;;;;;;;2.40;2.20;;;;;;;34.23;35.27;99179.94;5075263;28;40582;-83
2021/06/26 10:14:27;;;;;;;3.20;2.70;;;;;;;34.91;33.68;99205.91;5058890;28;41061;-82
2021/06/26 10:16:56;;;;;;;3.30;3.00;;;;;;;34.40;33.92;99196.56;5074124;28;43029;-86
2021/06/26 10:19:25;;;;;;;2.60;2.40;;;;;;;34.31;33.39;99192.50;5071971;28;40924;-90
2021/06/26 10:21:53;;;;;;;2.63;2.43;;;;;;;34.29;35.09;99139.66;5063754;28;40421;-84
2021/06/26 10:24:21;;;;;;;2.90;2.70;;;;;;;34.15;33.39;99193.19;5065743;28;41715;-84
2021/06/26 10:26:49;;;;;;;2.67;2.47;;;;;;;34.17;34.92;99178.16;5048855;28;41772;-81
2021/06/26 10:29:29;;;;;;;2.93;2.70;;;;;;;34.37;34.64;99186.03;5068990;28;41889;-84
2021/06/26 10:31:57;;;;;;;2.60;2.40;;;;;;;34.46;34.12;99187.34;5069317;28;40458;-80
2021/06/26 10:34:26;;;;;;;2.30;2.10;;;;;;;34.37;33.05;99186.03;5065832;28;42038;-79
2021/06/26 10:36:54;;;;;;;2.67;2.17;;;;;;;33.99;33.13;99185.69;5064314;28;41700;-84
2021/06/26 10:39:24;;;;;;;2.70;2.50;;;;;;;34.09;33.74;99183.19;5065835;28;41967;-82
2021/06/26 10:42:00;;;;;;;3.07;2.87;;;;;;;34.45;33.01;99188.41;5075070;28;40206;-85
2021/06/26 10:44:40;;;;;;;2.60;2.40;;;;;;;34.06;32.46;99173.50;5057804;28;41382;-82
2021/06/26 10:47:10;;;;;;;2.73;2.37;;;;;;;33.80;33.64;99174.81;5076228;28;20231;-87
2021/06/26 10:49:38;;;;;;;2.23;2.03;;;;;;;33.19;33.97;99175.94;5069109;28;41491;-81
2021/06/26 10:52:08;;;;;;;2.40;2.20;;;;;;;32.70;34.57;99170.72;5083359;28;39950;-83
2021/06/26 10:54:37;;;;;;;2.30;2.10;;;;;;;32.84;34.43;99164.00;5075906;28;40764;-78
2021/06/26 10:57:07;;;;;;;2.70;2.50;;;;;;;33.23;32.96;99179.06;5077764;28;42435;-85
2021/06/26 10:59:36;;;;;;;2.50;2.30;;;;;;;33.11;34.79;99157.09;5080342;28;42297;-86
2021/06/26 11:02:04;;;;;;;2.47;2.27;;;;;;;33.22;35.23;99166.41;5077165;28;39918;-83
2021/06/26 11:04:34;;;;;;;2.23;2.03;;;;;;;33.54;35.63;99156.00;5082747;28;42011;-79
2021/06/26 11:07:06;;;;;;;3.00;2.73;;;;;;;33.86;33.96;99157.38;5064742;28;42643;-82
2021/06/26 11:09:39;;;;;;;1.97;1.87;;;;;;;34.03;35.85;99153.88;5072813;28;43058;-80
2021/06/26 11:12:12;;;;;;;2.30;2.10;;;;;;;33.91;34.91;99156.66;5077014;28;40305;-79
2021/06/26 11:14:50;;;;;;;2.50;2.30;;;;;;;33.60;33.67;99166.06;5073427;28;41608;-80
2021/06/26 11:17:21;;;;;;;2.13;2.03;;;;;;;33.27;34.09;99150.09;5054239;28;41617;-82
2021/06/26 11:19:49;;;;;;;2.50;2.17;;;;;;;33.39;34.69;99150.13;5078840;28;41111;-79
2021/06/26 11:22:17;;;;;;;1.80;1.70;;;;;;;33.30;34.76;99155.13;5072181;28;40571;-78
2021/06/26 11:24:47;;;;;;;2.00;1.80;;;;;;;33.10;34.83;99157.31;5081206;28;41339;-80
2021/06/26 11:27:20;;;;;;;1.97;1.80;;;;;;;33.16;34.82;99135.25;5079583;28;43373;-81
2021/06/26 11:29:51;;;;;;;1.97;1.87;;;;;;;33.74;35.13;99148.28;5060942;28;41425;-80
2021/06/26 11:32:21;;;;;;;1.60;1.47;;;;;;;33.90;33.00;99163.22;5074754;28;39724;-80
2021/06/26 11:34:57;;;;;;;5.23;2.77;;;;;;;33.84;34.32;99164.19;5072014;28;41342;-83
2021/06/26 11:37:32;;;;;;;4.00;2.43;;;;;;;33.62;34.68;99150.16;5074781;28;43074;-78
2021/06/26 11:40:01;;;;;;;1.80;1.70;;;;;;;33.64;35.48;99150.75;5080992;28;42845;-80
2021/06/26 11:42:29;;;;;;;2.37;2.17;;;;;;;33.95;34.71;99151.50;5053524;28;38857;-85